Terminal Aerodrome Forecast
Issued by NWS

Home | Current Version | Previous Version | Text Only | Print | Product List | Glossary On
Versions: 1 2 3 4 5 6 7 8 9 10 11 12 13 14 15 16 17 18 19 20 21 22 23 24 25 26 27
000
FTUS42 KGSP 030540
TAFGMU
TAF
KGMU 030540Z 0306/0406 02004KT P6SM VCSH SCT009 SCT011 OVC100
      TEMPO 0306/0310 BKN009 OVC100
     FM031000 03003KT 6SM BR BKN011 OVC026
     FM031200 04003KT 6SM BR BKN007
     FM031500 07005KT P6SM OVC011
     FM031700 19003KT P6SM BKN035 PROB30 0320/0324 4SM TSRA BKN025CB
     FM040100 05007KT P6SM BKN010=

USA.gov is the U.S. government's official web portal to all federal, state and local government web resources and services.